sensor_id;sensor_type;location;lat;lon;timestamp;pressure;altitude;pressure_sealevel;temperature;humidity
11415;BME280;5763;42.714;23.244;2023-10-09T00:02:24;95023.91;;;19.33;50.99
11415;BME280;5763;42.714;23.244;2023-10-09T00:04:51;94929.59;;;18.74;51.27
11415;BME280;5763;42.714;23.244;2023-10-09T00:07:18;95063.63;;;19.55;51.50
11415;BME280;5763;42.714;23.244;2023-10-09T00:09:49;95064.16;;;19.54;51.46
11415;BME280;5763;42.714;23.244;2023-10-09T00:12:19;94993.22;;;19.00;51.43
11415;BME280;5763;42.714;23.244;2023-10-09T00:14:49;95014.97;;;19.12;51.46
11415;BME280;5763;42.714;23.244;2023-10-09T00:17:21;95069.91;;;19.45;51.54
11415;BME280;5763;42.714;23.244;2023-10-09T00:19:49;95099.16;;;19.35;51.67
11415;BME280;5763;42.714;23.244;2023-10-09T00:22:17;94927.97;;;18.57;51.60
11415;BME280;5763;42.714;23.244;2023-10-09T00:24:55;94911.19;;;18.35;51.63
11415;BME280;5763;42.714;23.244;2023-10-09T00:27:40;94920.44;;;18.26;52.18
11415;BME280;5763;42.714;23.244;2023-10-09T00:30:10;95049.06;;;19.13;52.02
11415;BME280;5763;42.714;23.244;2023-10-09T00:32:41;95008.50;;;18.84;51.90
11415;BME280;5763;42.714;23.244;2023-10-09T00:35:11;94998.75;;;18.94;51.82
11415;BME280;5763;42.714;23.244;2023-10-09T00:37:52;94997.66;;;18.81;51.88
11415;BME280;5763;42.714;23.244;2023-10-09T00:40:30;94986.63;;;18.50;52.27
11415;BME280;5763;42.714;23.244;2023-10-09T00:43:03;95051.13;;;18.87;52.54
11415;BME280;5763;42.714;23.244;2023-10-09T00:45:39;94936.19;;;18.09;52.37
11415;BME280;5763;42.714;23.244;2023-10-09T00:48:06;94934.69;;;17.83;52.56
11415;BME280;5763;42.714;23.244;2023-10-09T00:50:35;95015.19;;;18.30;52.78
11415;BME280;5763;42.714;23.244;2023-10-09T00:53:05;95061.38;;;18.70;52.72
11415;BME280;5763;42.714;23.244;2023-10-09T00:55:38;95042.78;;;18.45;52.80
11415;BME280;5763;42.714;23.244;2023-10-09T00:58:13;95032.19;;;18.17;53.08
11415;BME280;5763;42.714;23.244;2023-10-09T01:00:42;95043.53;;;18.19;52.96
11415;BME280;5763;42.714;23.244;2023-10-09T01:03:13;95021.56;;;18.11;53.03
11415;BME280;5763;42.714;23.244;2023-10-09T01:05:48;94971.47;;;17.58;53.07
11415;BME280;5763;42.714;23.244;2023-10-09T01:08:22;94996.72;;;17.91;52.98
11415;BME280;5763;42.714;23.244;2023-10-09T01:10:55;94949.53;;;17.54;52.48
11415;BME280;5763;42.714;23.244;2023-10-09T01:13:26;94936.75;;;17.36;52.28
11415;BME280;5763;42.714;23.244;2023-10-09T01:16:05;95056.75;;;18.04;51.67
11415;BME280;5763;42.714;23.244;2023-10-09T01:18:33;95092.81;;;18.10;51.73
11415;BME280;5763;42.714;23.244;2023-10-09T01:21:06;95108.25;;;18.17;52.07
11415;BME280;5763;42.714;23.244;2023-10-09T01:23:40;94986.84;;;17.18;52.38
11415;BME280;5763;42.714;23.244;2023-10-09T01:26:24;95025.38;;;17.62;52.31
11415;BME280;5763;42.714;23.244;2023-10-09T01:28:51;94967.97;;;17.37;52.22
11415;BME280;5763;42.714;23.244;2023-10-09T01:31:23;95074.19;;;18.11;52.68
11415;BME280;5763;42.714;23.244;2023-10-09T01:33:52;94933.19;;;17.10;53.23
11415;BME280;5763;42.714;23.244;2023-10-09T01:36:25;94954.38;;;16.93;53.42
11415;BME280;5763;42.714;23.244;2023-10-09T01:38:59;95085.47;;;17.62;53.39
11415;BME280;5763;42.714;23.244;2023-10-09T01:41:28;94994.03;;;16.90;53.26
11415;BME280;5763;42.714;23.244;2023-10-09T01:43:59;95167.63;;;17.90;52.78
11415;BME280;5763;42.714;23.244;2023-10-09T01:46:28;95065.69;;;17.28;52.86
11415;BME280;5763;42.714;23.244;2023-10-09T01:48:59;94976.88;;;16.86;52.58
11415;BME280;5763;42.714;23.244;2023-10-09T01:51:33;94976.00;;;16.75;52.62
11415;BME280;5763;42.714;23.244;2023-10-09T01:54:03;95168.41;;;17.71;52.73
11415;BME280;5763;42.714;23.244;2023-10-09T01:56:30;95096.50;;;17.21;52.59
11415;BME280;5763;42.714;23.244;2023-10-09T01:59:02;95056.94;;;16.95;52.73
11415;BME280;5763;42.714;23.244;2023-10-09T02:01:35;95133.56;;;17.44;53.14
11415;BME280;5763;42.714;23.244;2023-10-09T02:04:06;95167.56;;;17.45;53.02
11415;BME280;5763;42.714;23.244;2023-10-09T02:06:39;95024.66;;;16.52;53.16
11415;BME280;5763;42.714;23.244;2023-10-09T02:09:07;95110.44;;;16.92;53.47
11415;BME280;5763;42.714;23.244;2023-10-09T02:11:45;95069.41;;;16.71;53.63
11415;BME280;5763;42.714;23.244;2023-10-09T02:14:12;95074.56;;;16.63;53.69
11415;BME280;5763;42.714;23.244;2023-10-09T02:16:49;95037.25;;;16.24;53.42
11415;BME280;5763;42.714;23.244;2023-10-09T02:19:30;95035.94;;;16.20;53.88
11415;BME280;5763;42.714;23.244;2023-10-09T02:22:02;95115.06;;;16.52;53.83
11415;BME280;5763;42.714;23.244;2023-10-09T02:24:40;95041.66;;;16.16;54.03
11415;BME280;5763;42.714;23.244;2023-10-09T02:27:21;95182.34;;;16.92;54.07
11415;BME280;5763;42.714;23.244;2023-10-09T02:30:12;95201.47;;;17.10;54.09
11415;BME280;5763;42.714;23.244;2023-10-09T02:32:45;95221.03;;;17.07;54.06
11415;BME280;5763;42.714;23.244;2023-10-09T02:35:18;95040.50;;;16.08;54.30
11415;BME280;5763;42.714;23.244;2023-10-09T02:38:02;95156.03;;;16.83;54.34
11415;BME280;5763;42.714;23.244;2023-10-09T02:40:36;95154.44;;;16.62;54.84
11415;BME280;5763;42.714;23.244;2023-10-09T02:43:26;95111.53;;;16.37;54.58
11415;BME280;5763;42.714;23.244;2023-10-09T02:45:54;95187.09;;;16.92;54.34
11415;BME280;5763;42.714;23.244;2023-10-09T02:48:21;95056.22;;;15.88;54.70
11415;BME280;5763;42.714;23.244;2023-10-09T02:50:51;95105.41;;;16.33;54.60
11415;BME280;5763;42.714;23.244;2023-10-09T02:53:19;95128.50;;;16.44;54.82
11415;BME280;5763;42.714;23.244;2023-10-09T02:55:56;95090.38;;;15.90;54.86
11415;BME280;5763;42.714;23.244;2023-10-09T02:58:38;95123.50;;;16.19;54.63
11415;BME280;5763;42.714;23.244;2023-10-09T03:01:10;95144.88;;;16.33;54.69
11415;BME280;5763;42.714;23.244;2023-10-09T03:03:39;95066.91;;;15.57;55.32
11415;BME280;5763;42.714;23.244;2023-10-09T03:06:06;95163.03;;;16.25;54.95
11415;BME280;5763;42.714;23.244;2023-10-09T03:08:40;95183.91;;;16.26;54.69
11415;BME280;5763;42.714;23.244;2023-10-09T03:11:08;95213.09;;;16.42;54.42
11415;BME280;5763;42.714;23.244;2023-10-09T03:13:41;95204.31;;;16.29;54.69
11415;BME280;5763;42.714;23.244;2023-10-09T03:16:10;95250.41;;;16.37;54.84
11415;BME280;5763;42.714;23.244;2023-10-09T03:18:46;95082.75;;;15.47;54.63
11415;BME280;5763;42.714;23.244;2023-10-09T03:21:13;95162.44;;;15.92;55.23
11415;BME280;5763;42.714;23.244;2023-10-09T03:23:43;95164.91;;;15.90;54.50
11415;BME280;5763;42.714;23.244;2023-10-09T03:26:16;95233.63;;;16.26;54.34
11415;BME280;5763;42.714;23.244;2023-10-09T03:28:44;95230.06;;;16.11;54.68
11415;BME280;5763;42.714;23.244;2023-10-09T03:31:12;95177.25;;;15.80;54.39
11415;BME280;5763;42.714;23.244;2023-10-09T03:33:39;95121.25;;;15.18;54.12
11415;BME280;5763;42.714;23.244;2023-10-09T03:36:07;95248.28;;;16.18;54.40
11415;BME280;5763;42.714;23.244;2023-10-09T03:38:35;95198.97;;;15.87;54.07
11415;BME280;5763;42.714;23.244;2023-10-09T03:41:02;95241.19;;;16.02;54.47
11415;BME280;5763;42.714;23.244;2023-10-09T03:43:35;95288.72;;;16.06;54.43
11415;BME280;5763;42.714;23.244;2023-10-09T03:46:04;95094.06;;;15.02;54.11
11415;BME280;5763;42.714;23.244;2023-10-09T03:48:42;95247.63;;;15.99;54.49
11415;BME280;5763;42.714;23.244;2023-10-09T03:51:12;95247.28;;;16.06;53.70
11415;BME280;5763;42.714;23.244;2023-10-09T03:53:46;95195.94;;;15.62;53.80
11415;BME280;5763;42.714;23.244;2023-10-09T03:56:14;95198.78;;;15.67;53.68
11415;BME280;5763;42.714;23.244;2023-10-09T03:58:45;95265.81;;;15.91;53.71
11415;BME280;5763;42.714;23.244;2023-10-09T04:01:15;95200.69;;;15.29;53.80
11415;BME280;5763;42.714;23.244;2023-10-09T04:03:48;95258.38;;;15.50;53.70
11415;BME280;5763;42.714;23.244;2023-10-09T04:06:15;95269.78;;;15.67;53.80
11415;BME280;5763;42.714;23.244;2023-10-09T04:08:43;95268.41;;;15.62;53.34
11415;BME280;5763;42.714;23.244;2023-10-09T04:11:14;95169.56;;;14.72;53.87
11415;BME280;5763;42.714;23.244;2023-10-09T04:13:49;95262.81;;;15.48;53.94
11415;BME280;5763;42.714;23.244;2023-10-09T04:16:18;95264.53;;;15.45;53.42
11415;BME280;5763;42.714;23.244;2023-10-09T04:19:16;95282.94;;;15.30;53.17
11415;BME280;5763;42.714;23.244;2023-10-09T04:21:47;95167.72;;;14.69;52.86
11415;BME280;5763;42.714;23.244;2023-10-09T04:24:14;95212.66;;;14.93;53.04
11415;BME280;5763;42.714;23.244;2023-10-09T04:26:50;95270.22;;;15.42;52.73
11415;BME280;5763;42.714;23.244;2023-10-09T04:29:24;95145.25;;;14.53;52.82
11415;BME280;5763;42.714;23.244;2023-10-09T04:31:54;95284.00;;;15.42;52.86
11415;BME280;5763;42.714;23.244;2023-10-09T04:34:22;95215.94;;;15.06;52.24
11415;BME280;5763;42.714;23.244;2023-10-09T04:36:55;95236.03;;;14.98;52.17
11415;BME280;5763;42.714;23.244;2023-10-09T04:39:26;95228.41;;;14.93;52.18
11415;BME280;5763;42.714;23.244;2023-10-09T04:42:03;95116.28;;;14.34;52.02
11415;BME280;5763;42.714;23.244;2023-10-09T04:44:53;95130.19;;;14.30;51.97
11415;BME280;5763;42.714;23.244;2023-10-09T04:47:45;95260.00;;;15.24;51.58
11415;BME280;5763;42.714;23.244;2023-10-09T04:50:32;95141.81;;;14.34;51.20
11415;BME280;5763;42.714;23.244;2023-10-09T04:53:45;95278.06;;;15.34;50.37
11415;BME280;5763;42.714;23.244;2023-10-09T04:56:20;95129.13;;;14.28;50.58
11415;BME280;5763;42.714;23.244;2023-10-09T04:58:49;95196.13;;;14.84;50.33
11415;BME280;5763;42.714;23.244;2023-10-09T05:01:30;95163.38;;;14.27;50.27
11415;BME280;5763;42.714;23.244;2023-10-09T05:04:09;95297.38;;;15.25;50.50
11415;BME280;5763;42.714;23.244;2023-10-09T05:06:54;95286.25;;;15.02;50.09
11415;BME280;5763;42.714;23.244;2023-10-09T05:09:24;95237.13;;;14.91;49.92
11415;BME280;5763;42.714;23.244;2023-10-09T05:11:51;95243.31;;;14.77;49.65
11415;BME280;5763;42.714;23.244;2023-10-09T05:14:41;95248.81;;;14.77;49.21
11415;BME280;5763;42.714;23.244;2023-10-09T05:17:21;95302.09;;;15.25;48.93
11415;BME280;5763;42.714;23.244;2023-10-09T05:19:51;95232.31;;;14.68;48.93
11415;BME280;5763;42.714;23.244;2023-10-09T05:22:48;95310.69;;;15.27;48.49
11415;BME280;5763;42.714;23.244;2023-10-09T05:25:24;95155.59;;;14.16;48.87
11415;BME280;5763;42.714;23.244;2023-10-09T05:28:11;95167.81;;;14.15;48.76
11415;BME280;5763;42.714;23.244;2023-10-09T05:30:56;95338.47;;;15.05;48.85
11415;BME280;5763;42.714;23.244;2023-10-09T05:33:34;95188.00;;;14.30;48.44
11415;BME280;5763;42.714;23.244;2023-10-09T05:36:03;95265.19;;;14.90;48.43
11415;BME280;5763;42.714;23.244;2023-10-09T05:39:01;95266.25;;;14.92;48.46
11415;BME280;5763;42.714;23.244;2023-10-09T05:41:42;95373.66;;;15.28;48.53
11415;BME280;5763;42.714;23.244;2023-10-09T05:44:18;95344.25;;;15.25;48.54
11415;BME280;5763;42.714;23.244;2023-10-09T05:47:02;95350.06;;;15.36;47.61
11415;BME280;5763;42.714;23.244;2023-10-09T05:50:00;95350.38;;;15.29;47.39
11415;BME280;5763;42.714;23.244;2023-10-09T05:52:43;95306.94;;;14.97;47.35
11415;BME280;5763;42.714;23.244;2023-10-09T05:55:29;95248.56;;;14.57;46.63
11415;BME280;5763;42.714;23.244;2023-10-09T05:58:22;95353.75;;;15.24;46.57
11415;BME280;5763;42.714;23.244;2023-10-09T06:01:05;95323.59;;;15.12;46.85
11415;BME280;5763;42.714;23.244;2023-10-09T06:03:46;95370.44;;;15.39;45.89
11415;BME280;5763;42.714;23.244;2023-10-09T06:06:21;95229.13;;;14.43;45.94
11415;BME280;5763;42.714;23.244;2023-10-09T06:09:02;95306.63;;;15.04;45.58
11415;BME280;5763;42.714;23.244;2023-10-09T06:11:49;95401.38;;;15.52;44.89
11415;BME280;5763;42.714;23.244;2023-10-09T06:14:23;95376.97;;;15.59;44.85
11415;BME280;5763;42.714;23.244;2023-10-09T06:16:51;95343.47;;;15.25;44.73
11415;BME280;5763;42.714;23.244;2023-10-09T06:19:48;95333.66;;;15.24;45.26
11415;BME280;5763;42.714;23.244;2023-10-09T06:22:16;95343.91;;;15.32;44.30
11415;BME280;5763;42.714;23.244;2023-10-09T06:25:00;95346.84;;;15.38;44.35
11415;BME280;5763;42.714;23.244;2023-10-09T06:27:34;95339.50;;;15.26;44.00
11415;BME280;5763;42.714;23.244;2023-10-09T06:30:22;95290.28;;;14.83;43.93
11415;BME280;5763;42.714;23.244;2023-10-09T06:32:52;95286.44;;;14.98;44.26
11415;BME280;5763;42.714;23.244;2023-10-09T06:35:33;95347.44;;;15.42;43.05
11415;BME280;5763;42.714;23.244;2023-10-09T06:38:03;95327.09;;;15.12;42.45
11415;BME280;5763;42.714;23.244;2023-10-09T06:40:49;95357.06;;;15.46;42.12
11415;BME280;5763;42.714;23.244;2023-10-09T06:43:42;95337.50;;;15.35;41.90
11415;BME280;5763;42.714;23.244;2023-10-09T06:46:18;95379.16;;;15.46;41.84
11415;BME280;5763;42.714;23.244;2023-10-09T06:49:02;95328.00;;;15.27;40.96
11415;BME280;5763;42.714;23.244;2023-10-09T06:51:54;95410.91;;;15.83;41.32
11415;BME280;5763;42.714;23.244;2023-10-09T06:54:42;95373.66;;;15.37;41.51
11415;BME280;5763;42.714;23.244;2023-10-09T06:57:17;95400.16;;;15.85;41.79
11415;BME280;5763;42.714;23.244;2023-10-09T07:00:05;95339.91;;;15.51;40.04
11415;BME280;5763;42.714;23.244;2023-10-09T07:02:49;95304.56;;;15.32;39.76
11415;BME280;5763;42.714;23.244;2023-10-09T07:05:19;95352.69;;;15.72;40.33
11415;BME280;5763;42.714;23.244;2023-10-09T07:07:46;95301.72;;;15.50;39.92
11415;BME280;5763;42.714;23.244;2023-10-09T07:10:22;95356.84;;;16.00;39.82
11415;BME280;5763;42.714;23.244;2023-10-09T07:12:59;95304.84;;;15.75;40.53
11415;BME280;5763;42.714;23.244;2023-10-09T07:15:25;95241.88;;;15.41;40.12
11415;BME280;5763;42.714;23.244;2023-10-09T07:18:09;95384.00;;;16.25;38.56
11415;BME280;5763;42.714;23.244;2023-10-09T07:20:49;95391.50;;;16.58;38.37
11415;BME280;5763;42.714;23.244;2023-10-09T07:23:27;95344.44;;;16.19;38.00
11415;BME280;5763;42.714;23.244;2023-10-09T07:26:04;95345.09;;;16.14;37.39
11415;BME280;5763;42.714;23.244;2023-10-09T07:29:03;95384.31;;;16.27;37.59
11415;BME280;5763;42.714;23.244;2023-10-09T07:31:42;95409.31;;;16.80;36.83
11415;BME280;5763;42.714;23.244;2023-10-09T07:34:11;95435.16;;;16.91;36.58
11415;BME280;5763;42.714;23.244;2023-10-09T07:36:55;95270.72;;;16.11;35.91
11415;BME280;5763;42.714;23.244;2023-10-09T07:39:30;95421.31;;;17.29;35.60
11415;BME280;5763;42.714;23.244;2023-10-09T07:42:05;95360.91;;;16.99;35.33
11415;BME280;5763;42.714;23.244;2023-10-09T07:44:45;95348.91;;;17.16;34.94
11415;BME280;5763;42.714;23.244;2023-10-09T07:47:19;95330.97;;;17.26;33.18
11415;BME280;5763;42.714;23.244;2023-10-09T07:50:26;95388.41;;;17.90;33.63
11415;BME280;5763;42.714;23.244;2023-10-09T07:53:04;95428.38;;;18.17;32.89
11415;BME280;5763;42.714;23.244;2023-10-09T07:55:44;95303.03;;;17.39;32.25
11415;BME280;5763;42.714;23.244;2023-10-09T07:58:21;95262.06;;;17.58;31.21
11415;BME280;5763;42.714;23.244;2023-10-09T08:00:52;95340.28;;;18.22;30.71
11415;BME280;5763;42.714;23.244;2023-10-09T08:03:48;95397.16;;;18.72;30.77
11415;BME280;5763;42.714;23.244;2023-10-09T08:06:24;95324.75;;;18.29;31.00
11415;BME280;5763;42.714;23.244;2023-10-09T08:09:08;95341.41;;;18.50;30.01
11415;BME280;5763;42.714;23.244;2023-10-09T08:12:04;95349.94;;;18.66;30.03
11415;BME280;5763;42.714;23.244;2023-10-09T08:14:43;95262.66;;;18.36;29.94
11415;BME280;5763;42.714;23.244;2023-10-09T08:17:11;95354.03;;;19.16;29.24
11415;BME280;5763;42.714;23.244;2023-10-09T08:19:41;95437.03;;;19.60;28.88
11415;BME280;5763;42.714;23.244;2023-10-09T08:22:22;95259.75;;;18.71;29.13
11415;BME280;5763;42.714;23.244;2023-10-09T08:25:12;95357.38;;;19.46;28.58
11415;BME280;5763;42.714;23.244;2023-10-09T08:27:54;95280.59;;;18.86;29.28
11415;BME280;5763;42.714;23.244;2023-10-09T08:30:23;95334.00;;;19.58;29.43
11415;BME280;5763;42.714;23.244;2023-10-09T08:33:06;95333.47;;;19.85;29.11
11415;BME280;5763;42.714;23.244;2023-10-09T08:36:00;95315.06;;;19.87;28.78
11415;BME280;5763;42.714;23.244;2023-10-09T08:38:31;95386.16;;;20.41;27.92
11415;BME280;5763;42.714;23.244;2023-10-09T08:41:07;95308.50;;;20.32;27.88
11415;BME280;5763;42.714;23.244;2023-10-09T08:43:48;95328.59;;;20.53;27.14
11415;BME280;5763;42.714;23.244;2023-10-09T08:46:23;95366.97;;;20.96;26.44
11415;BME280;5763;42.714;23.244;2023-10-09T08:48:53;95383.50;;;21.16;26.40
11415;BME280;5763;42.714;23.244;2023-10-09T08:51:21;95368.53;;;21.03;26.63
11415;BME280;5763;42.714;23.244;2023-10-09T08:53:52;95325.44;;;20.82;26.58
11415;BME280;5763;42.714;23.244;2023-10-09T08:56:21;95297.09;;;20.83;25.35
11415;BME280;5763;42.714;23.244;2023-10-09T08:58:53;95312.66;;;21.28;25.48
11415;BME280;5763;42.714;23.244;2023-10-09T09:01:26;95258.94;;;20.95;25.06
11415;BME280;5763;42.714;23.244;2023-10-09T09:03:58;95234.66;;;21.01;25.87
11415;BME280;5763;42.714;23.244;2023-10-09T09:06:36;95230.38;;;21.05;24.89
11415;BME280;5763;42.714;23.244;2023-10-09T09:09:10;95319.53;;;21.93;25.10
11415;BME280;5763;42.714;23.244;2023-10-09T09:11:43;95356.22;;;22.25;24.41
11415;BME280;5763;42.714;23.244;2023-10-09T09:14:15;95231.38;;;21.52;23.89
11415;BME280;5763;42.714;23.244;2023-10-09T09:16:48;95368.13;;;22.58;23.72
11415;BME280;5763;42.714;23.244;2023-10-09T09:19:17;95379.75;;;22.68;23.72
11415;BME280;5763;42.714;23.244;2023-10-09T09:21:49;95344.22;;;22.68;23.48
11415;BME280;5763;42.714;23.244;2023-10-09T09:24:20;95262.69;;;22.29;22.46
11415;BME280;5763;42.714;23.244;2023-10-09T09:26:59;95252.75;;;22.45;21.53
11415;BME280;5763;42.714;23.244;2023-10-09T09:29:39;95326.03;;;23.08;22.41
11415;BME280;5763;42.714;23.244;2023-10-09T09:32:10;95235.50;;;22.41;22.29
11415;BME280;5763;42.714;23.244;2023-10-09T09:34:46;95221.03;;;22.53;22.52
11415;BME280;5763;42.714;23.244;2023-10-09T09:37:19;95296.19;;;23.38;21.86
11415;BME280;5763;42.714;23.244;2023-10-09T09:39:47;95343.09;;;23.80;21.61
11415;BME280;5763;42.714;23.244;2023-10-09T09:42:17;95216.00;;;22.87;21.64
11415;BME280;5763;42.714;23.244;2023-10-09T09:44:52;95289.31;;;23.39;20.70
11415;BME280;5763;42.714;23.244;2023-10-09T09:47:22;95351.72;;;23.82;21.10
11415;BME280;5763;42.714;23.244;2023-10-09T09:49:53;95307.88;;;23.31;20.59
11415;BME280;5763;42.714;23.244;2023-10-09T09:52:29;95318.72;;;23.45;21.58
11415;BME280;5763;42.714;23.244;2023-10-09T09:55:06;95304.28;;;23.41;20.02
11415;BME280;5763;42.714;23.244;2023-10-09T09:57:40;95270.56;;;23.34;20.85
11415;BME280;5763;42.714;23.244;2023-10-09T10:00:12;95258.13;;;23.29;20.85
11415;BME280;5763;42.714;23.244;2023-10-09T10:02:57;95283.03;;;23.62;20.81
11415;BME280;5763;42.714;23.244;2023-10-09T10:05:27;95308.16;;;23.97;20.80
11415;BME280;5763;42.714;23.244;2023-10-09T10:07:57;95313.13;;;24.10;19.80
11415;BME280;5763;42.714;23.244;2023-10-09T10:10:35;95321.63;;;24.23;20.08
11415;BME280;5763;42.714;23.244;2023-10-09T10:13:04;95302.00;;;24.28;19.39
11415;BME280;5763;42.714;23.244;2023-10-09T10:18:57;95281.41;;;24.50;19.11
11415;BME280;5763;42.714;23.244;2023-10-09T10:21:33;95209.72;;;24.23;18.33
11415;BME280;5763;42.714;23.244;2023-10-09T10:24:04;95277.56;;;24.95;18.98
11415;BME280;5763;42.714;23.244;2023-10-09T10:26:33;95233.06;;;24.73;19.38
11415;BME280;5763;42.714;23.244;2023-10-09T10:29:17;95261.19;;;25.18;19.59
11415;BME280;5763;42.714;23.244;2023-10-09T10:31:56;95179.19;;;25.17;19.35
11415;BME280;5763;42.714;23.244;2023-10-09T10:34:53;95260.47;;;26.38;18.49
11415;BME280;5763;42.714;23.244;2023-10-09T10:37:35;95238.34;;;26.60;18.78
11415;BME280;5763;42.714;23.244;2023-10-09T10:40:05;95156.22;;;25.95;18.97
11415;BME280;5763;42.714;23.244;2023-10-09T10:42:47;95136.72;;;25.45;19.12
11415;BME280;5763;42.714;23.244;2023-10-09T10:45:31;95231.22;;;26.07;19.43
11415;BME280;5763;42.714;23.244;2023-10-09T10:48:01;95239.28;;;26.50;18.96
11415;BME280;5763;42.714;23.244;2023-10-09T10:50:35;95154.91;;;26.22;18.38
11415;BME280;5763;42.714;23.244;2023-10-09T10:53:11;95119.91;;;25.71;18.22
11415;BME280;5763;42.714;23.244;2023-10-09T10:55:55;95157.13;;;25.84;18.31
11415;BME280;5763;42.714;23.244;2023-10-09T10:58:51;95157.91;;;26.37;18.37
11415;BME280;5763;42.714;23.244;2023-10-09T11:01:37;95118.41;;;26.22;18.46
11415;BME280;5763;42.714;23.244;2023-10-09T11:04:20;95168.78;;;26.66;17.79
11415;BME280;5763;42.714;23.244;2023-10-09T11:07:06;95217.66;;;26.97;18.43
11415;BME280;5763;42.714;23.244;2023-10-09T11:09:45;95083.28;;;25.95;17.56
11415;BME280;5763;42.714;23.244;2023-10-09T11:12:26;95086.81;;;25.69;18.35
11415;BME280;5763;42.714;23.244;2023-10-09T11:15:04;95070.00;;;25.82;18.51
11415;BME280;5763;42.714;23.244;2023-10-09T11:17:44;95181.31;;;26.65;18.10
11415;BME280;5763;42.714;23.244;2023-10-09T11:20:12;95123.34;;;26.29;17.82
11415;BME280;5763;42.714;23.244;2023-10-09T11:22:58;95176.66;;;26.68;18.27
11415;BME280;5763;42.714;23.244;2023-10-09T11:25:46;95115.31;;;26.72;17.76
11415;BME280;5763;42.714;23.244;2023-10-09T11:28:18;95055.53;;;26.38;17.94
11415;BME280;5763;42.714;23.244;2023-10-09T11:30:58;95090.53;;;26.37;17.41
11415;BME280;5763;42.714;23.244;2023-10-09T11:33:43;95094.66;;;26.23;18.11
11415;BME280;5763;42.714;23.244;2023-10-09T11:36:10;95048.22;;;26.01;18.48
11415;BME280;5763;42.714;23.244;2023-10-09T11:38:39;95076.56;;;26.11;18.26
11415;BME280;5763;42.714;23.244;2023-10-09T11:41:14;95050.97;;;26.14;17.81
11415;BME280;5763;42.714;23.244;2023-10-09T11:43:49;95078.13;;;26.32;17.66
11415;BME280;5763;42.714;23.244;2023-10-09T11:46:23;95028.41;;;26.20;17.91
11415;BME280;5763;42.714;23.244;2023-10-09T11:49:14;95099.88;;;26.65;18.22
11415;BME280;5763;42.714;23.244;2023-10-09T11:52:05;95069.41;;;26.90;18.04
11415;BME280;5763;42.714;23.244;2023-10-09T11:54:51;95106.44;;;27.42;17.62
11415;BME280;5763;42.714;23.244;2023-10-09T11:57:23;94993.41;;;26.95;17.14
11415;BME280;5763;42.714;23.244;2023-10-09T11:59:56;95055.22;;;27.36;17.12
11415;BME280;5763;42.714;23.244;2023-10-09T12:02:23;95121.50;;;27.73;17.34
11415;BME280;5763;42.714;23.244;2023-10-09T12:04:50;95095.31;;;27.85;17.01
11415;BME280;5763;42.714;23.244;2023-10-09T12:07:22;95058.63;;;27.98;16.13
11415;BME280;5763;42.714;23.244;2023-10-09T12:09:50;95071.03;;;28.03;15.54
11415;BME280;5763;42.714;23.244;2023-10-09T12:12:22;95029.34;;;27.66;16.50
11415;BME280;5763;42.714;23.244;2023-10-09T12:14:52;95081.34;;;28.00;16.60
11415;BME280;5763;42.714;23.244;2023-10-09T12:17:19;95072.06;;;27.85;16.55
11415;BME280;5763;42.714;23.244;2023-10-09T12:19:50;95073.72;;;28.16;16.10
11415;BME280;5763;42.714;23.244;2023-10-09T12:22:18;94964.88;;;27.40;16.24
11415;BME280;5763;42.714;23.244;2023-10-09T12:24:47;95040.69;;;28.09;16.34
11415;BME280;5763;42.714;23.244;2023-10-09T12:27:16;95061.72;;;28.58;15.74
11415;BME280;5763;42.714;23.244;2023-10-09T12:29:46;95031.09;;;28.55;15.67
11415;BME280;5763;42.714;23.244;2023-10-09T12:32:13;95015.69;;;28.48;15.87
11415;BME280;5763;42.714;23.244;2023-10-09T12:34:45;95062.28;;;28.57;15.97
11415;BME280;5763;42.714;23.244;2023-10-09T12:37:15;94943.31;;;27.78;16.00
11415;BME280;5763;42.714;23.244;2023-10-09T12:39:46;95055.19;;;28.71;14.90
11415;BME280;5763;42.714;23.244;2023-10-09T12:42:15;95005.84;;;28.34;15.47
11415;BME280;5763;42.714;23.244;2023-10-09T12:44:42;95048.53;;;28.46;15.93
11415;BME280;5763;42.714;23.244;2023-10-09T12:47:10;94918.50;;;27.26;16.23
11415;BME280;5763;42.714;23.244;2023-10-09T12:49:38;94999.63;;;27.50;16.45
11415;BME280;5763;42.714;23.244;2023-10-09T12:52:06;94995.38;;;27.28;16.33
11415;BME280;5763;42.714;23.244;2023-10-09T12:54:45;94945.41;;;26.86;16.43
11415;BME280;5763;42.714;23.244;2023-10-09T12:57:17;94931.72;;;27.10;16.12
11415;BME280;5763;42.714;23.244;2023-10-09T12:59:45;94923.38;;;26.97;15.75
11415;BME280;5763;42.714;23.244;2023-10-09T13:02:14;94922.25;;;26.52;16.37
11415;BME280;5763;42.714;23.244;2023-10-09T13:04:53;94973.09;;;26.82;16.32
11415;BME280;5763;42.714;23.244;2023-10-09T13:07:21;94929.56;;;26.55;16.27
11415;BME280;5763;42.714;23.244;2023-10-09T13:09:49;95005.88;;;27.07;16.09
11415;BME280;5763;42.714;23.244;2023-10-09T13:12:35;95012.19;;;26.80;15.34
11415;BME280;5763;42.714;23.244;2023-10-09T13:15:10;95010.25;;;26.75;14.95
11415;BME280;5763;42.714;23.244;2023-10-09T13:17:39;94981.09;;;26.24;14.81
11415;BME280;5763;42.714;23.244;2023-10-09T13:20:07;94954.06;;;26.13;15.81
11415;BME280;5763;42.714;23.244;2023-10-09T13:22:39;94956.56;;;26.04;15.85
11415;BME280;5763;42.714;23.244;2023-10-09T13:25:07;94943.63;;;25.88;16.73
11415;BME280;5763;42.714;23.244;2023-10-09T13:27:42;94994.13;;;25.88;17.14
11415;BME280;5763;42.714;23.244;2023-10-09T13:30:17;94895.56;;;25.37;16.78
11415;BME280;5763;42.714;23.244;2023-10-09T13:32:49;94993.84;;;26.25;16.92
11415;BME280;5763;42.714;23.244;2023-10-09T13:35:17;94894.31;;;25.25;17.34
11415;BME280;5763;42.714;23.244;2023-10-09T13:37:45;94880.69;;;25.16;17.52
11415;BME280;5763;42.714;23.244;2023-10-09T13:40:20;94894.56;;;25.22;17.17
11415;BME280;5763;42.714;23.244;2023-10-09T13:42:57;94912.59;;;25.39;17.65
11415;BME280;5763;42.714;23.244;2023-10-09T13:45:26;94839.91;;;24.82;17.99
11415;BME280;5763;42.714;23.244;2023-10-09T13:47:54;94920.03;;;24.98;18.39